• Join FlightAware (Why Join?)
  • Login
  • US Flag 
08:15AM EDT


 

Airport Tracker/Info


-or-


 

Live Flight TrackerFlight Track Log ✈ SKW5550 ✈ 23-Aug-2013 ✈ KCOD - KDEN

Flight Track Log - Related Links

Times and Time Zones

All times are in EDT time to prevent confusion due to time zone crossing. See the SKW5550 flight status page for this flight to view local times or setup timezone preferences in your user account.

Time Position Orientation Groundspeed Altitude Reporting Facility
EDT Latitude Longitude Course Direction KTS MPH feet Rate Location/Type
08:13AM 44.5061 -109.0539 144° Southeast 152 175 6,200  Level Salt Lake Center
08:14AM 44.4608 -109.0728 197° South 242 278 7,600 1,620 Climbing Salt Lake Center
08:15AM 44.0147 -108.5112 144° Southeast  Level Estimated
08:15AM 44.4772 -108.9994 73° East 244 281 9,500  Level Salt Lake Center
08:16AM 43.9302 -108.4266 144° Southeast  Level Estimated
08:16AM 44.5497 -108.9708 16° North 250 288 12,200  Level Salt Lake Center
08:17AM 43.8457 -108.3423 144° Southeast  Level Estimated
08:17AM 44.5231 -108.8833 113° Southeast 277 319 14,300  Level Salt Lake Center
08:18AM 43.7611 -108.2582 144° Southeast  Level Estimated
08:18AM 44.4489 -108.8658 170° South 270 311 16,000  Level Salt Lake Center
08:19AM 44.3692 -108.8181 157° South 302 348 17,200 1,020 Climbing Salt Lake Center
08:20AM 44.2806 -108.7683 158° South 333 383 18,100 900 Climbing Salt Lake Center
08:21AM 44.1867 -108.7131 157° South 354 407 19,100 840 Climbing Salt Lake Center
08:22AM 44.0917 -108.6592 158° South 367 422 19,900 840 Climbing Salt Lake Center
08:23AM 43.9967 -108.6056 158° South 369 425 20,900 660 Climbing Salt Lake Center
08:24AM 43.8986 -108.5503 158° South 380 437 21,300 540 Climbing Salt Lake Center
08:25AM 43.7961 -108.4906 157° South 397 457 22,000 600 Climbing Salt Lake Center
08:26AM 43.6922 -108.4319 158° South 403 464 22,600 660 Climbing Salt Lake Center
08:27AM 43.5869 -108.3731 158° South 409 471 23,400 720 Climbing Salt Lake Center
08:28AM 43.4825 -108.3144 158° South 406 467 24,100 660 Climbing Salt Lake Center
08:29AM 43.3881 -108.2247 145° Southeast 413 475 24,800 600 Climbing Salt Lake Center
08:30AM 43.2964 -108.1247 142° Southeast 420 483 25,400 540 Climbing Salt Lake Center
08:31AM 43.2039 -108.0267 142° Southeast 421 484 25,900 480 Climbing Salt Lake Center
08:32AM 43.1117 -107.9286 142° Southeast 421 484 26,400 540 Climbing Salt Lake Center
08:33AM 42.9989 -107.8117 143° Southeast 425 489 27,000 540 Climbing Salt Lake Center
08:34AM 42.9064 -107.7139 142° Southeast 424 488 27,600 540 Climbing Salt Lake Center
08:35AM 42.8175 -107.6214 143° Southeast 420 483 28,100 540 Climbing Salt Lake Center
08:36AM 42.7283 -107.5289 143° Southeast 419 482 28,700 540 Climbing Salt Lake Center
08:37AM 42.6250 -107.4211 142° Southeast 418 481 29,300 540 Climbing Salt Lake Center
08:38AM 42.5358 -107.3286 143° Southeast 421 484 29,800 420 Climbing Salt Lake Center
08:39AM 42.4486 -107.2353 142° Southeast 419 482 30,200 480 Climbing Salt Lake Center
08:40AM 42.3461 -107.1261 142° Southeast 418 481 30,800 360 Climbing Salt Lake Center
08:41AM 42.2567 -107.0339 143° Southeast 422 486 31,000 60 Climbing Salt Lake Center
08:42AM 42.1675 -106.9378 141° Southeast 427 491 31,000  Level Salt Lake Center
08:43AM 42.0611 -106.8289 143° Southeast 428 493 31,000  Level Salt Lake Center
08:44AM 41.9697 -106.7333 142° Southeast 433 498 31,000  Level Salt Lake Center
08:45AM 41.8769 -106.6403 143° Southeast 434 499 31,000  Level Salt Lake Center
08:46AM 41.7711 -106.5308 142° Southeast 432 497 31,000  Level Salt Lake Center
08:47AM 41.6639 -106.4178 142° Southeast 434 499 31,000  Level Denver Center
08:49AM 41.5731 -106.3239 142° Southeast 433 498 31,000  Level Denver Center
08:50AM 41.4514 -106.1983 142° Southeast 433 498 31,000  Level Denver Center
08:51AM 41.3597 -106.1069 143° Southeast 432 497 31,000  Level Denver Center
08:52AM 41.2522 -105.9975 143° Southeast 436 502 31,000 -300 Level Denver Center
08:53AM 41.1589 -105.9022 142° Southeast 441 507 30,400 -1,440 Descending Denver Center
08:54AM 41.0464 -105.7900 143° Southeast 451 519 28,100 -2,280 Descending Denver Center
08:55AM 40.9442 -105.6872 143° Southeast 450 518 25,800 -2,160 Descending Denver Center
08:56AM 40.8461 -105.5894 143° Southeast 444 511 23,800 -1,920 Descending Denver Center
08:57AM 40.7519 -105.4947 143° Southeast 431 496 22,000 -1,560 Descending Denver Center
08:59AM 40.5836 -105.3275 143° Southeast 368 423 19,200 -1,260 Descending Denver Center
09:00AM 40.5092 -105.2564 144° Southeast 340 391 18,300 -1,200 Descending Denver Center
09:01AM 40.4342 -105.1800 142° Southeast 336 387 16,800 -1,680 Descending Denver Center
09:02AM 40.3514 -105.1050 145° Southeast 335 386 14,900 -1,380 Descending Denver Center
09:03AM 40.3114 -105.0100 119° Southeast 302 348 14,000 -1,080 Descending Denver Center
09:04AM 40.2825 -104.9192 113° Southeast 275 316 12,800 -1,380 Descending Denver Center
09:05AM 40.2350 -104.8417 129° Southeast 272 313 11,300 -1,380 Descending Denver Center
09:06AM 40.1833 -104.7617 130° Southeast 268 308 10,000 -1,140 Descending Denver Center
09:07AM 40.1183 -104.7172 152° Southeast 263 303 9,000 -780 Descending Denver Center
09:08AM 40.0628 -104.6933 162° South 214 246 8,500 -720 Descending Denver Center
09:09AM 40.0086 -104.6944 181° South 196 226 7,600 -960 Descending Denver Center
09:10AM 39.9542 -104.6956 181° South 196 226 6,600 -960 Descending Denver Center
09:11AM 39.9075 -104.6958 180° South 159 183 5,700 -600 Descending Denver Center
09:12AM 39.8772 -104.6956 180° South 125 144 5,400 -300 Descending Denver Center